sensor_id;sensor_type;location;lat;lon;timestamp;temperature;humidity
51867;DHT22;52862;52.504;13.480;2023-06-26T00:01:03;21.40;99.90
51867;DHT22;52862;52.504;13.480;2023-06-26T00:03:31;21.30;99.90
51867;DHT22;52862;52.504;13.480;2023-06-26T00:06:00;21.30;99.90
51867;DHT22;52862;52.504;13.480;2023-06-26T00:08:27;21.30;99.90
51867;DHT22;52862;52.504;13.480;2023-06-26T00:10:53;21.20;99.90
51867;DHT22;52862;52.504;13.480;2023-06-26T00:13:23;21.20;99.90
51867;DHT22;52862;52.504;13.480;2023-06-26T00:15:50;21.20;99.90
51867;DHT22;52862;52.504;13.480;2023-06-26T00:18:17;21.10;99.90
51867;DHT22;52862;52.504;13.480;2023-06-26T00:20:43;21.10;99.90
51867;DHT22;52862;52.504;13.480;2023-06-26T00:23:11;21.00;99.90
51867;DHT22;52862;52.504;13.480;2023-06-26T00:25:39;21.00;99.90
51867;DHT22;52862;52.504;13.480;2023-06-26T00:28:05;21.10;99.90
51867;DHT22;52862;52.504;13.480;2023-06-26T00:30:33;21.00;99.90
51867;DHT22;52862;52.504;13.480;2023-06-26T00:33:00;21.00;99.90
51867;DHT22;52862;52.504;13.480;2023-06-26T00:35:26;20.90;99.90
51867;DHT22;52862;52.504;13.480;2023-06-26T00:37:53;21.00;99.90
51867;DHT22;52862;52.504;13.480;2023-06-26T00:40:20;21.00;99.90
51867;DHT22;52862;52.504;13.480;2023-06-26T00:42:46;21.00;99.90
51867;DHT22;52862;52.504;13.480;2023-06-26T00:45:13;20.90;99.90
51867;DHT22;52862;52.504;13.480;2023-06-26T00:47:41;21.20;99.90
51867;DHT22;52862;52.504;13.480;2023-06-26T00:50:08;20.90;99.90
51867;DHT22;52862;52.504;13.480;2023-06-26T00:52:35;20.90;99.90
51867;DHT22;52862;52.504;13.480;2023-06-26T00:55:02;20.90;99.90
51867;DHT22;52862;52.504;13.480;2023-06-26T00:57:30;20.90;99.90
51867;DHT22;52862;52.504;13.480;2023-06-26T00:59:57;20.90;99.90
51867;DHT22;52862;52.504;13.480;2023-06-26T01:02:24;21.00;99.90
51867;DHT22;52862;52.504;13.480;2023-06-26T01:04:52;20.90;99.90
51867;DHT22;52862;52.504;13.480;2023-06-26T01:07:20;20.90;99.90
51867;DHT22;52862;52.504;13.480;2023-06-26T01:09:48;21.00;99.90
51867;DHT22;52862;52.504;13.480;2023-06-26T01:12:15;21.50;99.90
51867;DHT22;52862;52.504;13.480;2023-06-26T01:14:42;20.90;99.90
51867;DHT22;52862;52.504;13.480;2023-06-26T01:17:10;20.90;99.90
51867;DHT22;52862;52.504;13.480;2023-06-26T01:19:38;20.90;99.90
51867;DHT22;52862;52.504;13.480;2023-06-26T01:22:25;20.90;99.90
51867;DHT22;52862;52.504;13.480;2023-06-26T01:25:03;20.90;99.90
51867;DHT22;52862;52.504;13.480;2023-06-26T01:27:35;20.90;99.90
51867;DHT22;52862;52.504;13.480;2023-06-26T01:30:03;20.80;99.90
51867;DHT22;52862;52.504;13.480;2023-06-26T01:32:31;20.80;99.90
51867;DHT22;52862;52.504;13.480;2023-06-26T01:34:59;20.80;99.90
51867;DHT22;52862;52.504;13.480;2023-06-26T01:37:26;20.80;99.90
51867;DHT22;52862;52.504;13.480;2023-06-26T01:39:53;20.80;99.90
51867;DHT22;52862;52.504;13.480;2023-06-26T01:42:20;20.80;99.90
51867;DHT22;52862;52.504;13.480;2023-06-26T01:44:47;20.70;99.90
51867;DHT22;52862;52.504;13.480;2023-06-26T01:47:18;20.70;99.90
51867;DHT22;52862;52.504;13.480;2023-06-26T01:49:48;20.70;99.90
51867;DHT22;52862;52.504;13.480;2023-06-26T01:52:25;20.70;99.90
51867;DHT22;52862;52.504;13.480;2023-06-26T01:54:58;20.90;99.90
51867;DHT22;52862;52.504;13.480;2023-06-26T01:57:26;20.70;99.90
51867;DHT22;52862;52.504;13.480;2023-06-26T01:59:55;20.70;99.90
51867;DHT22;52862;52.504;13.480;2023-06-26T02:02:23;20.60;99.90
51867;DHT22;52862;52.504;13.480;2023-06-26T02:04:51;20.60;99.90
51867;DHT22;52862;52.504;13.480;2023-06-26T02:07:17;20.60;99.90
51867;DHT22;52862;52.504;13.480;2023-06-26T02:09:44;20.60;99.90
51867;DHT22;52862;52.504;13.480;2023-06-26T02:12:11;20.60;99.90
51867;DHT22;52862;52.504;13.480;2023-06-26T02:14:37;20.60;99.90
51867;DHT22;52862;52.504;13.480;2023-06-26T02:17:05;20.50;99.90
51867;DHT22;52862;52.504;13.480;2023-06-26T02:19:34;20.60;99.90
51867;DHT22;52862;52.504;13.480;2023-06-26T02:22:01;20.50;99.90
51867;DHT22;52862;52.504;13.480;2023-06-26T02:24:28;20.50;99.90
51867;DHT22;52862;52.504;13.480;2023-06-26T02:26:56;20.40;99.90
51867;DHT22;52862;52.504;13.480;2023-06-26T02:29:23;20.50;99.90
51867;DHT22;52862;52.504;13.480;2023-06-26T02:31:50;20.50;99.90
51867;DHT22;52862;52.504;13.480;2023-06-26T02:34:17;20.50;99.90
51867;DHT22;52862;52.504;13.480;2023-06-26T02:36:44;20.40;99.90
51867;DHT22;52862;52.504;13.480;2023-06-26T02:39:11;20.50;99.90
51867;DHT22;52862;52.504;13.480;2023-06-26T02:41:37;20.40;99.90
51867;DHT22;52862;52.504;13.480;2023-06-26T02:44:04;20.50;99.90
51867;DHT22;52862;52.504;13.480;2023-06-26T02:46:32;20.40;99.90
51867;DHT22;52862;52.504;13.480;2023-06-26T02:48:59;20.40;99.90
51867;DHT22;52862;52.504;13.480;2023-06-26T02:51:27;20.40;99.90
51867;DHT22;52862;52.504;13.480;2023-06-26T02:53:53;20.40;99.90
51867;DHT22;52862;52.504;13.480;2023-06-26T02:56:20;20.40;99.90
51867;DHT22;52862;52.504;13.480;2023-06-26T02:58:47;20.40;99.90
51867;DHT22;52862;52.504;13.480;2023-06-26T03:01:13;20.40;99.90
51867;DHT22;52862;52.504;13.480;2023-06-26T03:03:43;20.40;99.90
51867;DHT22;52862;52.504;13.480;2023-06-26T03:06:13;20.30;99.90
51867;DHT22;52862;52.504;13.480;2023-06-26T03:08:41;20.30;99.90
51867;DHT22;52862;52.504;13.480;2023-06-26T03:11:08;20.30;99.90
51867;DHT22;52862;52.504;13.480;2023-06-26T03:13:36;20.30;99.90
51867;DHT22;52862;52.504;13.480;2023-06-26T03:16:03;20.30;99.90
51867;DHT22;52862;52.504;13.480;2023-06-26T03:18:30;20.20;99.90
51867;DHT22;52862;52.504;13.480;2023-06-26T03:20:56;20.30;99.90
51867;DHT22;52862;52.504;13.480;2023-06-26T03:23:23;20.30;99.90
51867;DHT22;52862;52.504;13.480;2023-06-26T03:25:51;20.30;99.90
51867;DHT22;52862;52.504;13.480;2023-06-26T03:28:17;20.20;99.90
51867;DHT22;52862;52.504;13.480;2023-06-26T03:30:44;20.20;99.90
51867;DHT22;52862;52.504;13.480;2023-06-26T03:33:11;20.20;99.90
51867;DHT22;52862;52.504;13.480;2023-06-26T03:35:38;20.20;99.90
51867;DHT22;52862;52.504;13.480;2023-06-26T03:38:05;20.10;99.90
51867;DHT22;52862;52.504;13.480;2023-06-26T03:40:31;20.20;99.90
51867;DHT22;52862;52.504;13.480;2023-06-26T03:42:59;20.20;99.90
51867;DHT22;52862;52.504;13.480;2023-06-26T03:45:25;20.20;99.90
51867;DHT22;52862;52.504;13.480;2023-06-26T03:47:52;20.20;99.90
51867;DHT22;52862;52.504;13.480;2023-06-26T03:50:19;20.30;99.90
51867;DHT22;52862;52.504;13.480;2023-06-26T03:52:46;20.30;99.90
51867;DHT22;52862;52.504;13.480;2023-06-26T03:55:13;20.40;99.90
51867;DHT22;52862;52.504;13.480;2023-06-26T03:57:40;20.40;99.90
51867;DHT22;52862;52.504;13.480;2023-06-26T04:00:09;20.50;99.90
51867;DHT22;52862;52.504;13.480;2023-06-26T04:02:38;20.60;99.90
51867;DHT22;52862;52.504;13.480;2023-06-26T04:05:05;20.70;99.90
51867;DHT22;52862;52.504;13.480;2023-06-26T04:07:32;20.80;99.90
51867;DHT22;52862;52.504;13.480;2023-06-26T04:09:59;20.90;99.90
51867;DHT22;52862;52.504;13.480;2023-06-26T04:12:26;21.00;99.90
51867;DHT22;52862;52.504;13.480;2023-06-26T04:14:53;21.20;99.90
51867;DHT22;52862;52.504;13.480;2023-06-26T04:17:20;21.40;99.90
51867;DHT22;52862;52.504;13.480;2023-06-26T04:19:47;21.50;99.90
51867;DHT22;52862;52.504;13.480;2023-06-26T04:22:14;21.60;99.90
51867;DHT22;52862;52.504;13.480;2023-06-26T04:24:41;21.70;99.90
51867;DHT22;52862;52.504;13.480;2023-06-26T04:27:07;21.80;99.90
51867;DHT22;52862;52.504;13.480;2023-06-26T04:29:34;21.90;99.90
51867;DHT22;52862;52.504;13.480;2023-06-26T04:32:01;21.90;99.90
51867;DHT22;52862;52.504;13.480;2023-06-26T04:34:29;21.90;99.90
51867;DHT22;52862;52.504;13.480;2023-06-26T04:36:59;21.90;99.90
51867;DHT22;52862;52.504;13.480;2023-06-26T04:39:26;22.00;99.90
51867;DHT22;52862;52.504;13.480;2023-06-26T04:41:53;22.00;99.90
51867;DHT22;52862;52.504;13.480;2023-06-26T04:44:19;22.00;99.90
51867;DHT22;52862;52.504;13.480;2023-06-26T04:46:47;22.00;99.90
51867;DHT22;52862;52.504;13.480;2023-06-26T04:49:13;22.00;99.90
51867;DHT22;52862;52.504;13.480;2023-06-26T04:51:44;22.00;99.90
51867;DHT22;52862;52.504;13.480;2023-06-26T04:54:11;22.00;99.90
51867;DHT22;52862;52.504;13.480;2023-06-26T04:56:38;22.00;99.90
51867;DHT22;52862;52.504;13.480;2023-06-26T04:59:06;22.00;99.90
51867;DHT22;52862;52.504;13.480;2023-06-26T05:01:33;22.10;99.90
51867;DHT22;52862;52.504;13.480;2023-06-26T05:04:00;22.10;99.90
51867;DHT22;52862;52.504;13.480;2023-06-26T05:06:26;22.20;99.90
51867;DHT22;52862;52.504;13.480;2023-06-26T05:08:54;22.30;99.90
51867;DHT22;52862;52.504;13.480;2023-06-26T05:11:20;22.40;99.90
51867;DHT22;52862;52.504;13.480;2023-06-26T05:13:48;22.50;99.90
51867;DHT22;52862;52.504;13.480;2023-06-26T05:16:15;22.70;99.90
51867;DHT22;52862;52.504;13.480;2023-06-26T05:18:41;22.80;99.90
51867;DHT22;52862;52.504;13.480;2023-06-26T05:21:09;23.00;99.90
51867;DHT22;52862;52.504;13.480;2023-06-26T05:23:36;23.10;99.90
51867;DHT22;52862;52.504;13.480;2023-06-26T05:26:04;23.10;99.90
51867;DHT22;52862;52.504;13.480;2023-06-26T05:28:31;24.10;99.90
51867;DHT22;52862;52.504;13.480;2023-06-26T05:30:58;23.20;99.90
51867;DHT22;52862;52.504;13.480;2023-06-26T05:33:27;23.30;99.90
51867;DHT22;52862;52.504;13.480;2023-06-26T05:35:54;23.40;99.90
51867;DHT22;52862;52.504;13.480;2023-06-26T05:38:22;23.50;99.90
51867;DHT22;52862;52.504;13.480;2023-06-26T05:40:49;23.60;99.90
51867;DHT22;52862;52.504;13.480;2023-06-26T05:43:17;23.70;99.90
51867;DHT22;52862;52.504;13.480;2023-06-26T05:45:53;23.80;99.90
51867;DHT22;52862;52.504;13.480;2023-06-26T05:48:20;23.70;99.90
51867;DHT22;52862;52.504;13.480;2023-06-26T05:50:47;23.60;99.90
51867;DHT22;52862;52.504;13.480;2023-06-26T05:53:14;23.50;99.90
51867;DHT22;52862;52.504;13.480;2023-06-26T05:55:42;23.30;99.90
51867;DHT22;52862;52.504;13.480;2023-06-26T05:58:10;23.50;99.90
51867;DHT22;52862;52.504;13.480;2023-06-26T06:00:38;23.60;99.90
51867;DHT22;52862;52.504;13.480;2023-06-26T06:03:06;23.80;99.90
51867;DHT22;52862;52.504;13.480;2023-06-26T06:05:33;24.00;99.90
51867;DHT22;52862;52.504;13.480;2023-06-26T06:07:59;24.10;99.90
51867;DHT22;52862;52.504;13.480;2023-06-26T06:10:26;24.20;99.90
51867;DHT22;52862;52.504;13.480;2023-06-26T06:12:53;24.40;99.90
51867;DHT22;52862;52.504;13.480;2023-06-26T06:15:20;24.50;99.90
51867;DHT22;52862;52.504;13.480;2023-06-26T06:17:47;24.50;99.90
51867;DHT22;52862;52.504;13.480;2023-06-26T06:20:14;24.60;99.90
51867;DHT22;52862;52.504;13.480;2023-06-26T06:22:41;24.60;99.90
51867;DHT22;52862;52.504;13.480;2023-06-26T06:25:08;24.60;99.90
51867;DHT22;52862;52.504;13.480;2023-06-26T06:27:35;24.80;99.90
51867;DHT22;52862;52.504;13.480;2023-06-26T06:30:02;25.00;99.90
51867;DHT22;52862;52.504;13.480;2023-06-26T06:32:29;25.00;99.90
51867;DHT22;52862;52.504;13.480;2023-06-26T06:34:57;25.00;99.90
51867;DHT22;52862;52.504;13.480;2023-06-26T06:37:24;25.10;99.90
51867;DHT22;52862;52.504;13.480;2023-06-26T06:39:50;25.20;99.90
51867;DHT22;52862;52.504;13.480;2023-06-26T06:42:17;25.30;99.90
51867;DHT22;52862;52.504;13.480;2023-06-26T06:44:44;25.10;99.90
51867;DHT22;52862;52.504;13.480;2023-06-26T06:47:10;25.20;99.90
51867;DHT22;52862;52.504;13.480;2023-06-26T06:49:37;25.30;99.90
51867;DHT22;52862;52.504;13.480;2023-06-26T06:52:05;25.50;99.90
51867;DHT22;52862;52.504;13.480;2023-06-26T06:54:32;25.60;99.90
51867;DHT22;52862;52.504;13.480;2023-06-26T06:57:16;25.70;99.90
51867;DHT22;52862;52.504;13.480;2023-06-26T06:59:43;25.80;99.90
51867;DHT22;52862;52.504;13.480;2023-06-26T07:02:10;25.80;99.90
51867;DHT22;52862;52.504;13.480;2023-06-26T07:04:36;25.90;99.90
51867;DHT22;52862;52.504;13.480;2023-06-26T07:07:04;25.90;99.90
51867;DHT22;52862;52.504;13.480;2023-06-26T07:09:31;26.10;99.90
51867;DHT22;52862;52.504;13.480;2023-06-26T07:11:58;26.30;99.90
51867;DHT22;52862;52.504;13.480;2023-06-26T07:14:24;26.40;99.90
51867;DHT22;52862;52.504;13.480;2023-06-26T07:16:51;26.50;99.90
51867;DHT22;52862;52.504;13.480;2023-06-26T07:19:18;26.30;99.90
51867;DHT22;52862;52.504;13.480;2023-06-26T07:21:44;26.50;99.90
51867;DHT22;52862;52.504;13.480;2023-06-26T07:24:13;26.40;99.90
51867;DHT22;52862;52.504;13.480;2023-06-26T07:26:39;26.40;99.90
51867;DHT22;52862;52.504;13.480;2023-06-26T07:29:12;26.40;99.90
51867;DHT22;52862;52.504;13.480;2023-06-26T07:31:39;26.20;99.90
51867;DHT22;52862;52.504;13.480;2023-06-26T07:34:06;26.20;99.90
51867;DHT22;52862;52.504;13.480;2023-06-26T07:36:32;26.20;99.90
51867;DHT22;52862;52.504;13.480;2023-06-26T07:38:59;26.20;99.90
51867;DHT22;52862;52.504;13.480;2023-06-26T07:41:26;26.40;99.90
51867;DHT22;52862;52.504;13.480;2023-06-26T07:43:55;26.40;99.90
51867;DHT22;52862;52.504;13.480;2023-06-26T07:46:22;26.70;99.90
51867;DHT22;52862;52.504;13.480;2023-06-26T07:48:48;26.90;99.90
51867;DHT22;52862;52.504;13.480;2023-06-26T07:51:15;27.10;99.90
51867;DHT22;52862;52.504;13.480;2023-06-26T07:53:42;27.20;99.90
51867;DHT22;52862;52.504;13.480;2023-06-26T07:56:08;27.40;99.90
51867;DHT22;52862;52.504;13.480;2023-06-26T07:58:36;27.40;99.90
51867;DHT22;52862;52.504;13.480;2023-06-26T08:01:05;27.40;99.90
51867;DHT22;52862;52.504;13.480;2023-06-26T08:03:32;27.50;99.90
51867;DHT22;52862;52.504;13.480;2023-06-26T08:06:01;27.50;99.90
51867;DHT22;52862;52.504;13.480;2023-06-26T08:08:29;27.40;99.90
51867;DHT22;52862;52.504;13.480;2023-06-26T08:10:55;27.30;99.90
51867;DHT22;52862;52.504;13.480;2023-06-26T08:13:22;27.20;99.90
51867;DHT22;52862;52.504;13.480;2023-06-26T08:15:49;27.20;99.90
51867;DHT22;52862;52.504;13.480;2023-06-26T08:18:17;27.40;99.90
51867;DHT22;52862;52.504;13.480;2023-06-26T08:20:43;27.50;99.90
51867;DHT22;52862;52.504;13.480;2023-06-26T08:23:10;27.60;99.90
51867;DHT22;52862;52.504;13.480;2023-06-26T08:25:37;27.80;99.90
51867;DHT22;52862;52.504;13.480;2023-06-26T08:28:06;27.90;99.90
51867;DHT22;52862;52.504;13.480;2023-06-26T08:30:32;28.00;99.90
51867;DHT22;52862;52.504;13.480;2023-06-26T08:33:00;28.10;99.90
51867;DHT22;52862;52.504;13.480;2023-06-26T08:35:26;28.10;99.90
51867;DHT22;52862;52.504;13.480;2023-06-26T08:37:53;28.30;99.90
51867;DHT22;52862;52.504;13.480;2023-06-26T08:40:21;28.20;99.90
51867;DHT22;52862;52.504;13.480;2023-06-26T08:42:48;28.40;99.90
51867;DHT22;52862;52.504;13.480;2023-06-26T08:45:18;28.30;99.90
51867;DHT22;52862;52.504;13.480;2023-06-26T08:47:48;28.40;99.90
51867;DHT22;52862;52.504;13.480;2023-06-26T08:50:20;28.40;99.90
51867;DHT22;52862;52.504;13.480;2023-06-26T08:52:53;28.40;99.90
51867;DHT22;52862;52.504;13.480;2023-06-26T08:55:24;28.60;99.90
51867;DHT22;52862;52.504;13.480;2023-06-26T08:57:53;28.60;99.90
51867;DHT22;52862;52.504;13.480;2023-06-26T09:00:20;28.50;99.90
51867;DHT22;52862;52.504;13.480;2023-06-26T09:02:47;28.50;99.90
51867;DHT22;52862;52.504;13.480;2023-06-26T09:05:14;28.40;99.90
51867;DHT22;52862;52.504;13.480;2023-06-26T09:07:41;28.20;99.90
51867;DHT22;52862;52.504;13.480;2023-06-26T09:10:08;28.30;99.90
51867;DHT22;52862;52.504;13.480;2023-06-26T09:12:36;28.40;99.90
51867;DHT22;52862;52.504;13.480;2023-06-26T09:15:05;28.60;99.90
51867;DHT22;52862;52.504;13.480;2023-06-26T09:17:39;28.60;99.90
51867;DHT22;52862;52.504;13.480;2023-06-26T09:20:07;28.50;99.90
51867;DHT22;52862;52.504;13.480;2023-06-26T09:22:36;28.50;99.90
51867;DHT22;52862;52.504;13.480;2023-06-26T09:25:06;28.60;99.90
51867;DHT22;52862;52.504;13.480;2023-06-26T09:27:34;28.70;99.90
51867;DHT22;52862;52.504;13.480;2023-06-26T09:30:01;28.70;99.90
51867;DHT22;52862;52.504;13.480;2023-06-26T09:32:28;28.90;99.90
51867;DHT22;52862;52.504;13.480;2023-06-26T09:34:55;29.10;99.90
51867;DHT22;52862;52.504;13.480;2023-06-26T09:37:22;29.10;99.80
51867;DHT22;52862;52.504;13.480;2023-06-26T09:39:50;29.10;98.10
51867;DHT22;52862;52.504;13.480;2023-06-26T09:42:19;29.20;98.30
51867;DHT22;52862;52.504;13.480;2023-06-26T09:44:46;29.10;97.80
51867;DHT22;52862;52.504;13.480;2023-06-26T09:47:16;28.90;97.50
51867;DHT22;52862;52.504;13.480;2023-06-26T09:49:43;28.80;97.90
51867;DHT22;52862;52.504;13.480;2023-06-26T09:52:14;28.80;97.90
51867;DHT22;52862;52.504;13.480;2023-06-26T09:54:41;28.90;98.20
51867;DHT22;52862;52.504;13.480;2023-06-26T09:57:10;29.20;98.50
51867;DHT22;52862;52.504;13.480;2023-06-26T09:59:38;29.30;97.90
51867;DHT22;52862;52.504;13.480;2023-06-26T10:02:05;29.50;97.70
51867;DHT22;52862;52.504;13.480;2023-06-26T10:04:32;29.40;97.80
51867;DHT22;52862;52.504;13.480;2023-06-26T10:07:02;29.50;97.60
51867;DHT22;52862;52.504;13.480;2023-06-26T10:09:31;29.50;96.90
51867;DHT22;52862;52.504;13.480;2023-06-26T10:12:01;29.40;97.70
51867;DHT22;52862;52.504;13.480;2023-06-26T10:14:33;29.40;97.90
51867;DHT22;52862;52.504;13.480;2023-06-26T10:17:03;29.60;97.50
51867;DHT22;52862;52.504;13.480;2023-06-26T10:19:32;29.70;97.40
51867;DHT22;52862;52.504;13.480;2023-06-26T10:22:00;29.70;97.50
51867;DHT22;52862;52.504;13.480;2023-06-26T10:24:31;29.80;97.00
51867;DHT22;52862;52.504;13.480;2023-06-26T10:27:03;29.70;97.50
51867;DHT22;52862;52.504;13.480;2023-06-26T10:29:32;29.80;97.00
51867;DHT22;52862;52.504;13.480;2023-06-26T10:32:01;29.60;97.30
51867;DHT22;52862;52.504;13.480;2023-06-26T10:34:30;29.50;97.40
51867;DHT22;52862;52.504;13.480;2023-06-26T10:37:01;29.70;97.80
51867;DHT22;52862;52.504;13.480;2023-06-26T10:39:47;29.90;96.90
51867;DHT22;52862;52.504;13.480;2023-06-26T10:42:15;29.80;96.40
51867;DHT22;52862;52.504;13.480;2023-06-26T10:44:43;29.70;96.80
51867;DHT22;52862;52.504;13.480;2023-06-26T10:47:12;29.80;96.60
51867;DHT22;52862;52.504;13.480;2023-06-26T10:49:40;30.00;96.90
51867;DHT22;52862;52.504;13.480;2023-06-26T10:52:27;30.20;96.90
51867;DHT22;52862;52.504;13.480;2023-06-26T10:54:55;30.40;96.50
51867;DHT22;52862;52.504;13.480;2023-06-26T10:57:23;30.50;96.30
51867;DHT22;52862;52.504;13.480;2023-06-26T11:00:10;30.50;95.60
51867;DHT22;52862;52.504;13.480;2023-06-26T11:02:50;30.60;96.20
51867;DHT22;52862;52.504;13.480;2023-06-26T11:05:25;30.60;95.50
51867;DHT22;52862;52.504;13.480;2023-06-26T11:08:06;30.60;96.40
51867;DHT22;52862;52.504;13.480;2023-06-26T11:10:49;30.70;94.60
51867;DHT22;52862;52.504;13.480;2023-06-26T11:13:17;30.90;94.60
51867;DHT22;52862;52.504;13.480;2023-06-26T11:15:44;31.10;92.90
51867;DHT22;52862;52.504;13.480;2023-06-26T11:18:12;30.80;93.70
51867;DHT22;52862;52.504;13.480;2023-06-26T11:20:39;30.90;94.20
51867;DHT22;52862;52.504;13.480;2023-06-26T11:23:07;30.90;94.80
51867;DHT22;52862;52.504;13.480;2023-06-26T11:25:35;30.70;94.10
51867;DHT22;52862;52.504;13.480;2023-06-26T11:28:03;30.80;94.60
51867;DHT22;52862;52.504;13.480;2023-06-26T11:30:30;31.10;94.30
51867;DHT22;52862;52.504;13.480;2023-06-26T11:33:04;31.40;94.10
51867;DHT22;52862;52.504;13.480;2023-06-26T11:35:32;32.60;94.10
51867;DHT22;52862;52.504;13.480;2023-06-26T11:37:59;31.50;93.20
51867;DHT22;52862;52.504;13.480;2023-06-26T11:40:32;31.70;93.90
51867;DHT22;52862;52.504;13.480;2023-06-26T11:43:00;32.00;92.90
51867;DHT22;52862;52.504;13.480;2023-06-26T11:45:28;31.90;93.00
51867;DHT22;52862;52.504;13.480;2023-06-26T11:47:55;31.90;92.40
51867;DHT22;52862;52.504;13.480;2023-06-26T11:50:22;31.90;92.90
51867;DHT22;52862;52.504;13.480;2023-06-26T11:52:53;32.20;92.70
51867;DHT22;52862;52.504;13.480;2023-06-26T11:55:22;32.30;92.10
51867;DHT22;52862;52.504;13.480;2023-06-26T11:57:49;32.60;91.90
51867;DHT22;52862;52.504;13.480;2023-06-26T12:00:17;32.70;91.00
51867;DHT22;52862;52.504;13.480;2023-06-26T12:02:44;32.30;92.30
51867;DHT22;52862;52.504;13.480;2023-06-26T12:05:12;32.50;91.80
51867;DHT22;52862;52.504;13.480;2023-06-26T12:07:40;32.40;91.70
51867;DHT22;52862;52.504;13.480;2023-06-26T12:10:10;32.30;91.00
51867;DHT22;52862;52.504;13.480;2023-06-26T12:12:38;31.70;91.20
51867;DHT22;52862;52.504;13.480;2023-06-26T12:15:07;31.70;91.00
51867;DHT22;52862;52.504;13.480;2023-06-26T12:17:37;32.30;91.60
51867;DHT22;52862;52.504;13.480;2023-06-26T12:20:05;32.50;91.10
51867;DHT22;52862;52.504;13.480;2023-06-26T12:22:35;32.10;90.80
51867;DHT22;52862;52.504;13.480;2023-06-26T12:25:02;32.00;90.50
51867;DHT22;52862;52.504;13.480;2023-06-26T12:27:29;32.00;92.20
51867;DHT22;52862;52.504;13.480;2023-06-26T12:29:56;32.10;92.00
51867;DHT22;52862;52.504;13.480;2023-06-26T12:32:23;31.80;91.90
51867;DHT22;52862;52.504;13.480;2023-06-26T12:34:51;31.90;92.20
51867;DHT22;52862;52.504;13.480;2023-06-26T12:37:19;32.20;91.70
51867;DHT22;52862;52.504;13.480;2023-06-26T12:39:47;32.70;91.30
51867;DHT22;52862;52.504;13.480;2023-06-26T12:42:14;33.20;91.40
51867;DHT22;52862;52.504;13.480;2023-06-26T12:44:42;33.50;89.90
51867;DHT22;52862;52.504;13.480;2023-06-26T12:47:09;33.70;89.30
51867;DHT22;52862;52.504;13.480;2023-06-26T12:49:40;33.40;89.40
51867;DHT22;52862;52.504;13.480;2023-06-26T12:52:08;32.30;90.20
51867;DHT22;52862;52.504;13.480;2023-06-26T12:54:36;31.90;90.10
51867;DHT22;52862;52.504;13.480;2023-06-26T12:57:04;32.00;90.40
51867;DHT22;52862;52.504;13.480;2023-06-26T12:59:31;32.60;90.10
51867;DHT22;52862;52.504;13.480;2023-06-26T13:01:59;33.40;90.70
51867;DHT22;52862;52.504;13.480;2023-06-26T13:04:27;33.60;89.10
51867;DHT22;52862;52.504;13.480;2023-06-26T13:06:54;33.30;87.50
51867;DHT22;52862;52.504;13.480;2023-06-26T13:09:21;32.90;90.40
51867;DHT22;52862;52.504;13.480;2023-06-26T13:11:48;32.80;90.70
51867;DHT22;52862;52.504;13.480;2023-06-26T13:14:15;32.80;90.20
51867;DHT22;52862;52.504;13.480;2023-06-26T13:16:42;32.70;90.60
51867;DHT22;52862;52.504;13.480;2023-06-26T13:19:09;32.50;90.30
51867;DHT22;52862;52.504;13.480;2023-06-26T13:21:36;32.30;89.20
51867;DHT22;52862;52.504;13.480;2023-06-26T13:24:03;32.00;90.60
51867;DHT22;52862;52.504;13.480;2023-06-26T13:26:31;31.70;90.40
51867;DHT22;52862;52.504;13.480;2023-06-26T13:29:03;31.40;91.40
51867;DHT22;52862;52.504;13.480;2023-06-26T13:31:30;31.20;92.40
51867;DHT22;52862;52.504;13.480;2023-06-26T13:33:58;30.90;92.10
51867;DHT22;52862;52.504;13.480;2023-06-26T13:36:26;30.80;91.40
51867;DHT22;52862;52.504;13.480;2023-06-26T13:38:53;30.60;91.40
51867;DHT22;52862;52.504;13.480;2023-06-26T13:41:22;30.50;92.00
51867;DHT22;52862;52.504;13.480;2023-06-26T13:43:48;30.40;92.80
51867;DHT22;52862;52.504;13.480;2023-06-26T13:46:16;30.40;93.00
51867;DHT22;52862;52.504;13.480;2023-06-26T13:48:43;30.40;93.10
51867;DHT22;52862;52.504;13.480;2023-06-26T13:51:09;30.50;92.90
51867;DHT22;52862;52.504;13.480;2023-06-26T13:53:37;30.60;93.20
51867;DHT22;52862;52.504;13.480;2023-06-26T13:56:04;30.70;92.40
51867;DHT22;52862;52.504;13.480;2023-06-26T13:58:31;30.60;92.90
51867;DHT22;52862;52.504;13.480;2023-06-26T14:00:58;30.90;92.80
51867;DHT22;52862;52.504;13.480;2023-06-26T14:03:26;31.20;92.80
51867;DHT22;52862;52.504;13.480;2023-06-26T14:05:54;31.40;92.90
51867;DHT22;52862;52.504;13.480;2023-06-26T14:08:20;31.20;92.70
51867;DHT22;52862;52.504;13.480;2023-06-26T14:10:48;30.90;93.20
51867;DHT22;52862;52.504;13.480;2023-06-26T14:13:17;30.50;93.70
51867;DHT22;52862;52.504;13.480;2023-06-26T14:15:49;30.30;93.80
51867;DHT22;52862;52.504;13.480;2023-06-26T14:18:18;30.10;94.10
51867;DHT22;52862;52.504;13.480;2023-06-26T14:20:45;29.90;94.30
51867;DHT22;52862;52.504;13.480;2023-06-26T14:23:12;29.70;94.40
51867;DHT22;52862;52.504;13.480;2023-06-26T14:25:38;29.60;94.00
51867;DHT22;52862;52.504;13.480;2023-06-26T14:28:06;29.50;93.70
51867;DHT22;52862;52.504;13.480;2023-06-26T14:30:33;29.20;95.00
51867;DHT22;52862;52.504;13.480;2023-06-26T14:33:00;27.60;99.90
51867;DHT22;52862;52.504;13.480;2023-06-26T14:35:28;24.50;99.90
51867;DHT22;52862;52.504;13.480;2023-06-26T14:37:54;21.40;99.90
51867;DHT22;52862;52.504;13.480;2023-06-26T14:40:21;20.20;99.90
51867;DHT22;52862;52.504;13.480;2023-06-26T14:42:48;19.80;99.90
51867;DHT22;52862;52.504;13.480;2023-06-26T14:45:16;19.70;99.90
51867;DHT22;52862;52.504;13.480;2023-06-26T14:47:43;19.50;99.90
51867;DHT22;52862;52.504;13.480;2023-06-26T14:50:10;19.50;99.90
51867;DHT22;52862;52.504;13.480;2023-06-26T14:52:37;19.40;99.90
51867;DHT22;52862;52.504;13.480;2023-06-26T14:55:04;19.40;99.90
51867;DHT22;52862;52.504;13.480;2023-06-26T14:57:34;19.40;99.90
51867;DHT22;52862;52.504;13.480;2023-06-26T15:00:01;19.50;99.90
51867;DHT22;52862;52.504;13.480;2023-06-26T15:02:30;19.60;99.90
51867;DHT22;52862;52.504;13.480;2023-06-26T15:04:56;19.70;99.90
51867;DHT22;52862;52.504;13.480;2023-06-26T15:07:23;19.90;99.90
51867;DHT22;52862;52.504;13.480;2023-06-26T15:09:50;20.10;99.90
51867;DHT22;52862;52.504;13.480;2023-06-26T15:12:17;20.30;99.90
51867;DHT22;52862;52.504;13.480;2023-06-26T15:14:43;20.60;99.90
51867;DHT22;52862;52.504;13.480;2023-06-26T15:17:10;20.70;99.90
51867;DHT22;52862;52.504;13.480;2023-06-26T15:19:37;20.90;99.90